Time;durP1;ratioP1;P1;durP2;ratioP2;P2;SDS_P1;SDS_P2;PMS_P1;PMS_P2;Temp;Humidity;BMP_temperature;BMP_pressure;BME280_temperature;BME280_humidity;BME280_pressure;Samples;Min_cycle;Max_cycle;Signal;HPM_P1;HPM_P2
2023/02/13 00:02:08;;;;;;;;;;;;;;;14.41;nan;103677.25;4987856;28;19987;-86
2023/02/13 00:04:33;;;;;;;;;;;;;;;14.40;nan;103675.59;4985196;28;19918;-85
2023/02/13 00:06:59;;;;;;;;;;;;;;;14.41;nan;103682.63;4976655;28;20014;-85
2023/02/13 00:09:24;;;;;;;;;;;;;;;14.40;nan;103683.69;4986263;28;19926;-85
2023/02/13 00:11:50;;;;;;;;;;;;;;;14.41;nan;103685.34;4983250;28;19917;-86
2023/02/13 00:14:15;;;;;;;;;;;;;;;14.40;nan;103692.59;4978071;28;20503;-85
2023/02/13 00:16:40;;;;;;;;;;;;;;;14.41;nan;103686.16;4985744;28;20021;-85
2023/02/13 00:19:06;;;;;;;;;;;;;;;14.41;nan;103688.88;4978320;28;19926;-85
2023/02/13 00:21:31;;;;;;;;;;;;;;;14.45;nan;103689.31;4985257;28;19929;-85
2023/02/13 00:23:56;;;;;;;;;;;;;;;14.41;nan;103696.13;4988218;28;19913;-86
2023/02/13 00:26:22;;;;;;;;;;;;;;;14.38;nan;103693.84;4981199;28;19957;-85
2023/02/13 00:28:47;;;;;;;;;;;;;;;14.39;nan;103692.81;4977971;28;19918;-85
2023/02/13 00:31:14;;;;;;;;;;;;;;;14.40;nan;103694.47;4980892;28;19946;-85
2023/02/13 00:33:41;;;;;;;;;;;;;;;14.40;nan;103686.38;4987239;28;19956;-86
2023/02/13 00:36:08;;;;;;;;;;;;;;;14.38;nan;103688.44;4977463;28;19930;-85
2023/02/13 00:38:34;;;;;;;;;;;;;;;14.38;nan;103688.44;4982541;28;19921;-85
2023/02/13 00:40:59;;;;;;;;;;;;;;;14.34;nan;103687.16;4978756;28;19958;-86
2023/02/13 00:43:25;;;;;;;;;;;;;;;14.32;nan;103697.31;4982554;28;19945;-85
2023/02/13 00:45:50;;;;;;;;;;;;;;;14.33;nan;103693.59;4977910;28;19918;-86
2023/02/13 00:48:15;;;;;;;;;;;;;;;14.30;nan;103702.09;4977351;28;19918;-85
2023/02/13 00:50:41;;;;;;;;;;;;;;;14.31;nan;103692.97;4980336;28;19926;-85
2023/02/13 00:53:06;;;;;;;;;;;;;;;14.27;nan;103692.53;4980406;28;19930;-86
2023/02/13 00:55:32;;;;;;;;;;;;;;;14.22;nan;103692.31;4981041;28;19933;-86
2023/02/13 00:57:58;;;;;;;;;;;;;;;14.22;nan;103689.63;4980320;28;20496;-85
2023/02/13 01:00:23;;;;;;;;;;;;;;;14.19;nan;103688.16;4979287;28;20000;-86
2023/02/13 01:02:49;;;;;;;;;;;;;;;14.19;nan;103690.84;4983668;28;19942;-86
2023/02/13 01:05:14;;;;;;;;;;;;;;;14.19;nan;103685.47;4978864;28;20266;-85
2023/02/13 01:07:39;;;;;;;;;;;;;;;14.16;nan;103693.94;4959503;28;19918;-85
2023/02/13 01:10:05;;;;;;;;;;;;;;;14.17;nan;103690.19;4979739;28;19949;-85
2023/02/13 01:12:30;;;;;;;;;;;;;;;14.19;nan;103685.47;4965918;28;20308;-86
2023/02/13 01:14:56;;;;;;;;;;;;;;;14.21;nan;103691.47;4977905;28;19950;-85
2023/02/13 01:17:21;;;;;;;;;;;;;;;14.21;nan;103683.41;4979789;28;19926;-86
2023/02/13 01:19:46;;;;;;;;;;;;;;;14.18;nan;103683.81;4978903;28;20628;-85
2023/02/13 01:22:12;;;;;;;;;;;;;;;14.14;nan;103685.22;4976557;28;19925;-85
2023/02/13 01:24:37;;;;;;;;;;;;;;;14.15;nan;103684.19;4984820;28;19924;-85
2023/02/13 01:27:02;;;;;;;;;;;;;;;14.18;nan;103678.41;4980106;28;21359;-85
2023/02/13 01:29:28;;;;;;;;;;;;;;;14.20;nan;103675.50;4977405;28;19933;-86
2023/02/13 01:31:54;;;;;;;;;;;;;;;14.20;nan;103687.13;4978085;28;19919;-85
2023/02/13 01:34:19;;;;;;;;;;;;;;;14.23;nan;103682.38;4979354;28;19921;-85
2023/02/13 01:36:47;;;;;;;;;;;;;;;14.20;nan;103687.13;4978995;28;19922;-85
2023/02/13 01:39:12;;;;;;;;;;;;;;;14.22;nan;103689.63;4976989;28;19926;-86
2023/02/13 01:41:40;;;;;;;;;;;;;;;14.18;nan;103682.94;4979596;28;19957;-85
2023/02/13 01:44:24;;;;;;;;;;;;;;;14.15;nan;103683.34;4982864;28;19918;-85
2023/02/13 01:46:49;;;;;;;;;;;;;;;14.11;nan;103687.47;4973743;28;19925;-85
2023/02/13 01:49:18;;;;;;;;;;;;;;;14.04;nan;103692.84;4975612;28;19922;-85
2023/02/13 01:51:43;;;;;;;;;;;;;;;14.00;nan;103688.88;4977614;28;19925;-86
2023/02/13 01:54:14;;;;;;;;;;;;;;;13.98;nan;103676.63;4979623;28;19918;-85
2023/02/13 01:56:45;;;;;;;;;;;;;;;14.00;nan;103693.44;4981508;28;19926;-85
2023/02/13 01:59:16;;;;;;;;;;;;;;;14.02;nan;103689.53;4975451;28;19922;-85
2023/02/13 02:01:42;;;;;;;;;;;;;;;14.04;nan;103687.47;4984529;28;20088;-85
2023/02/13 02:04:17;;;;;;;;;;;;;;;14.05;nan;103678.34;4978911;28;19926;-85
2023/02/13 02:06:45;;;;;;;;;;;;;;;14.08;nan;103687.88;4978178;28;20438;-85
2023/02/13 02:09:16;;;;;;;;;;;;;;;14.07;nan;103687.06;4980165;28;19953;-86
2023/02/13 02:11:49;;;;;;;;;;;;;;;14.04;nan;103687.47;4980436;28;19918;-85
2023/02/13 02:14:14;;;;;;;;;;;;;;;14.03;nan;103677.72;4976998;28;20454;-85
2023/02/13 02:16:40;;;;;;;;;;;;;;;14.03;nan;103680.41;4972372;28;19922;-86
2023/02/13 02:19:11;;;;;;;;;;;;;;;14.04;nan;103682.06;4978663;28;19924;-86
2023/02/13 02:21:57;;;;;;;;;;;;;;;14.05;nan;103686.44;4977016;28;19929;-85
2023/02/13 02:24:22;;;;;;;;;;;;;;;14.08;nan;103679.81;4952019;28;19922;-85
2023/02/13 02:27:06;;;;;;;;;;;;;;;14.07;nan;103688.91;4981358;28;19918;-85
2023/02/13 02:29:50;;;;;;;;;;;;;;;14.06;nan;103684.56;4977768;28;19933;-85
2023/02/13 02:32:18;;;;;;;;;;;;;;;14.05;nan;103678.34;4976348;28;19928;-85
2023/02/13 02:34:55;;;;;;;;;;;;;;;14.02;nan;103670.66;4980153;28;19921;-85
2023/02/13 02:37:34;;;;;;;;;;;;;;;14.00;nan;103677.25;4976555;28;19922;-85
2023/02/13 02:40:05;;;;;;;;;;;;;;;13.98;nan;103672.06;4978034;28;19941;-85
2023/02/13 02:42:49;;;;;;;;;;;;;;;13.97;nan;103665.00;4977954;28;19926;-85
2023/02/13 02:45:17;;;;;;;;;;;;;;;14.01;nan;103662.78;4973968;28;19922;-85
2023/02/13 02:50:45;;;;;;;;;;;;;;;14.01;nan;103660.91;4976924;28;19925;-85
2023/02/13 02:53:16;;;;;;;;;;;;;;;13.98;nan;103658.59;4977415;28;19974;-85
2023/02/13 02:55:45;;;;;;;;;;;;;;;13.99;nan;103662.94;4974100;28;19945;-85
2023/02/13 03:06:43;;;;;;;;;;;;;;;13.97;nan;103664.19;4982673;28;19929;-86
2023/02/13 03:14:40;;;;;;;;;;;;;;;13.94;nan;103662.72;4982987;28;19925;-85
2023/02/13 03:22:49;;;;;;;;;;;;;;;13.89;nan;103657.94;4982484;28;19929;-85
2023/02/13 03:25:17;;;;;;;;;;;;;;;13.89;nan;103652.53;4985625;28;19918;-85
2023/02/13 03:30:33;;;;;;;;;;;;;;;13.89;nan;103657.09;4983160;28;19936;-84
2023/02/13 03:33:14;;;;;;;;;;;;;;;13.87;nan;103656.47;4986541;28;19921;-85
2023/02/13 03:38:56;;;;;;;;;;;;;;;13.78;nan;103663.03;4980282;28;19994;-86
2023/02/13 03:41:24;;;;;;;;;;;;;;;13.76;nan;103665.94;4979958;28;19930;-85
2023/02/13 03:43:55;;;;;;;;;;;;;;;13.79;nan;103664.69;4961713;28;19982;-85
2023/02/13 03:46:22;;;;;;;;;;;;;;;13.81;nan;103668.03;4979566;28;19918;-85
2023/02/13 03:51:50;;;;;;;;;;;;;;;13.76;nan;103670.50;4981136;28;19949;-86
2023/02/13 03:54:15;;;;;;;;;;;;;;;13.77;nan;103669.47;4980460;28;20431;-85
2023/02/13 03:59:28;;;;;;;;;;;;;;;13.74;nan;103669.88;4979877;28;19934;-86
2023/02/13 04:01:58;;;;;;;;;;;;;;;13.71;nan;103670.28;4979683;28;20520;-85
2023/02/13 04:04:50;;;;;;;;;;;;;;;13.70;nan;103674.00;4978143;28;19926;-85
2023/02/13 04:07:28;;;;;;;;;;;;;;;13.69;nan;103665.06;4977669;28;20017;-85
2023/02/13 04:09:55;;;;;;;;;;;;;;;13.70;nan;103669.44;4979774;28;19989;-85
2023/02/13 04:12:36;;;;;;;;;;;;;;;13.69;nan;103661.56;4979661;28;19927;-85
2023/02/13 04:15:10;;;;;;;;;;;;;;;13.70;nan;103661.34;4981036;28;19937;-85
2023/02/13 04:17:40;;;;;;;;;;;;;;;13.64;nan;103664.81;4980598;28;19949;-85
2023/02/13 04:20:06;;;;;;;;;;;;;;;13.64;nan;103655.91;4980453;28;19918;-85
2023/02/13 04:22:31;;;;;;;;;;;;;;;13.64;nan;103658.59;4974207;28;19948;-85
2023/02/13 04:24:57;;;;;;;;;;;;;;;13.61;nan;103657.97;4979440;28;19928;-85
2023/02/13 04:27:24;;;;;;;;;;;;;;;13.62;nan;103656.09;4980295;28;20280;-85
2023/02/13 04:29:49;;;;;;;;;;;;;;;13.64;nan;103655.91;4981135;28;20014;-85
2023/02/13 04:32:16;;;;;;;;;;;;;;;13.63;nan;103659.63;4976820;28;20201;-85
2023/02/13 04:34:41;;;;;;;;;;;;;;;13.62;nan;103650.72;4978152;28;19922;-85
2023/02/13 04:37:07;;;;;;;;;;;;;;;13.58;nan;103657.53;4981021;28;20019;-85
2023/02/13 04:39:32;;;;;;;;;;;;;;;13.57;nan;103659.41;4980207;28;19926;-85
2023/02/13 04:41:57;;;;;;;;;;;;;;;13.57;nan;103659.41;4979751;28;19922;-85
2023/02/13 04:44:23;;;;;;;;;;;;;;;13.60;nan;103653.59;4977380;28;19960;-85
2023/02/13 04:46:48;;;;;;;;;;;;;;;13.63;nan;103651.53;4980508;28;20335;-86
2023/02/13 04:49:13;;;;;;;;;;;;;;;13.63;nan;103654.25;4981663;28;19918;-85
2023/02/13 04:51:39;;;;;;;;;;;;;;;13.61;nan;103647.19;4981906;28;19994;-85
2023/02/13 04:54:07;;;;;;;;;;;;;;;13.60;nan;103653.59;4977175;28;20318;-85
2023/02/13 04:56:32;;;;;;;;;;;;;;;13.60;nan;103656.31;4980676;28;19999;-85
2023/02/13 04:58:57;;;;;;;;;;;;;;;13.60;nan;103645.53;4979459;28;19918;-85
2023/02/13 05:01:25;;;;;;;;;;;;;;;13.56;nan;103646.97;4982698;28;19929;-85
2023/02/13 05:03:51;;;;;;;;;;;;;;;13.56;nan;103652.34;4978216;28;19921;-85
2023/02/13 05:06:16;;;;;;;;;;;;;;;13.57;nan;103650.47;4978026;28;19945;-85
2023/02/13 05:08:41;;;;;;;;;;;;;;;13.58;nan;103654.84;4981294;28;20347;-85
2023/02/13 05:11:07;;;;;;;;;;;;;;;13.58;nan;103654.84;4979033;28;19922;-85
2023/02/13 05:13:32;;;;;;;;;;;;;;;13.54;nan;103657.09;4984170;28;19924;-85
2023/02/13 05:15:58;;;;;;;;;;;;;;;13.54;nan;103658.97;4978587;28;20292;-85
2023/02/13 05:18:23;;;;;;;;;;;;;;;13.54;nan;103659.78;4982624;28;19922;-85
2023/02/13 05:23:21;;;;;;;;;;;;;;;13.52;nan;103661.03;4979135;28;19952;-85
2023/02/13 05:23:34;;;;;;;;;;;;;;;13.54;nan;103665.19;4979900;28;19949;-85
2023/02/13 05:25:59;;;;;;;;;;;;;;;13.56;nan;103665.00;4978972;28;19915;-85
2023/02/13 05:31:08;;;;;;;;;;;;;;;13.57;nan;103669.34;4979663;28;20065;-85
2023/02/13 05:33:34;;;;;;;;;;;;;;;13.56;nan;103668.50;4982986;28;20103;-85
2023/02/13 05:35:59;;;;;;;;;;;;;;;13.56;nan;103673.91;4980987;28;19937;-85
2023/02/13 05:38:24;;;;;;;;;;;;;;;13.55;nan;103666.00;4979298;28;19965;-85
2023/02/13 05:40:50;;;;;;;;;;;;;;;13.55;nan;103671.41;4978508;28;20479;-85
2023/02/13 05:43:15;;;;;;;;;;;;;;;13.54;nan;103675.97;4978699;28;20065;-85
2023/02/13 05:45:40;;;;;;;;;;;;;;;13.52;nan;103671.81;4976729;28;19918;-85
2023/02/13 05:48:06;;;;;;;;;;;;;;;13.53;nan;103677.00;4977801;28;20024;-84
2023/02/13 05:50:31;;;;;;;;;;;;;;;13.51;nan;103676.34;4978568;28;19926;-85
2023/02/13 05:52:56;;;;;;;;;;;;;;;13.54;nan;103678.66;4975585;28;19918;-85
2023/02/13 05:55:22;;;;;;;;;;;;;;;13.55;nan;103685.69;4983094;28;19922;-84
2023/02/13 05:57:47;;;;;;;;;;;;;;;13.49;nan;103682.97;4982831;28;19918;-85
2023/02/13 06:00:13;;;;;;;;;;;;;;;13.45;nan;103687.91;4978266;28;20331;-85
2023/02/13 06:02:38;;;;;;;;;;;;;;;13.44;nan;103691.63;4977206;28;19922;-85
2023/02/13 06:05:04;;;;;;;;;;;;;;;13.43;nan;103694.50;4979762;28;19922;-85
2023/02/13 06:07:29;;;;;;;;;;;;;;;13.44;nan;103683.53;4975082;28;19925;-85
2023/02/13 06:09:58;;;;;;;;;;;;;;;13.44;nan;103691.63;4983490;28;20426;-85
2023/02/13 06:12:23;;;;;;;;;;;;;;;13.45;nan;103698.66;4977796;28;19924;-85
2023/02/13 06:14:49;;;;;;;;;;;;;;;13.45;nan;103698.66;4982357;28;19958;-85
2023/02/13 06:17:14;;;;;;;;;;;;;;;13.47;nan;103702.03;4981200;28;19929;-85
2023/02/13 06:19:39;;;;;;;;;;;;;;;13.47;nan;103699.34;4982714;28;19922;-84
2023/02/13 06:22:05;;;;;;;;;;;;;;;13.45;nan;103706.75;4978281;28;19997;-85
2023/02/13 06:24:30;;;;;;;;;;;;;;;13.44;nan;103707.78;4975667;28;19994;-85
2023/02/13 06:26:56;;;;;;;;;;;;;;;13.45;nan;103708.59;4974422;28;19918;-85
2023/02/13 06:29:22;;;;;;;;;;;;;;;13.44;nan;103715.03;4973193;28;19918;-85
2023/02/13 06:31:50;;;;;;;;;;;;;;;13.46;nan;103718.34;4977760;28;19922;-85
2023/02/13 06:34:15;;;;;;;;;;;;;;;13.44;nan;103709.63;4978748;28;19965;-86
2023/02/13 06:36:41;;;;;;;;;;;;;;;13.45;nan;103698.66;4983438;28;19922;-85
2023/02/13 06:39:09;;;;;;;;;;;;;;;13.45;nan;103708.59;4982522;28;19934;-85
2023/02/13 06:41:35;;;;;;;;;;;;;;;13.43;nan;103716.88;4980652;28;19918;-85
2023/02/13 06:44:00;;;;;;;;;;;;;;;13.41;nan;103716.25;4980651;28;19936;-84
2023/02/13 06:46:26;;;;;;;;;;;;;;;13.39;nan;103721.00;4983270;28;19929;-85
2023/02/13 06:48:51;;;;;;;;;;;;;;;13.40;nan;103719.16;4980681;28;19929;-85
2023/02/13 06:51:16;;;;;;;;;;;;;;;13.44;nan;103725.81;4983758;28;19929;-85
2023/02/13 06:53:42;;;;;;;;;;;;;;;13.44;nan;103723.94;4979427;28;19930;-85
2023/02/13 06:56:08;;;;;;;;;;;;;;;13.46;nan;103727.25;4984353;28;20193;-85
2023/02/13 06:58:33;;;;;;;;;;;;;;;13.45;nan;103728.28;4979458;28;19976;-85
2023/02/13 07:00:59;;;;;;;;;;;;;;;13.47;nan;103728.13;4983071;28;19918;-86
2023/02/13 07:03:24;;;;;;;;;;;;;;;13.45;nan;103732.84;4983439;28;19933;-84
2023/02/13 07:05:50;;;;;;;;;;;;;;;13.43;nan;103738.44;4972222;28;19966;-86
2023/02/13 07:08:16;;;;;;;;;;;;;;;13.42;nan;103736.78;4978141;28;19924;-85
2023/02/13 07:10:42;;;;;;;;;;;;;;;13.39;nan;103726.38;4987542;28;20411;-85
2023/02/13 07:13:08;;;;;;;;;;;;;;;13.40;nan;103732.59;4984127;28;20072;-85
2023/02/13 07:15:33;;;;;;;;;;;;;;;13.34;nan;103734.22;4982197;28;19925;-85
2023/02/13 07:18:01;;;;;;;;;;;;;;;13.32;nan;103738.16;4985703;28;19925;-86
2023/02/13 07:20:27;;;;;;;;;;;;;;;13.32;nan;103733.59;4987269;28;19951;-85
2023/02/13 07:22:56;;;;;;;;;;;;;;;13.34;nan;103736.91;4985115;28;19924;-86
2023/02/13 07:25:21;;;;;;;;;;;;;;;13.36;nan;103742.13;4981772;28;20438;-86
2023/02/13 07:27:47;;;;;;;;;;;;;;;13.33;nan;103746.03;4983333;28;19918;-85
2023/02/13 07:30:13;;;;;;;;;;;;;;;13.36;nan;103747.50;4982926;28;20211;-85
2023/02/13 07:32:38;;;;;;;;;;;;;;;13.34;nan;103747.69;4980403;28;19977;-85
2023/02/13 07:35:04;;;;;;;;;;;;;;;13.39;nan;103757.88;4983181;28;19922;-85
2023/02/13 07:37:30;;;;;;;;;;;;;;;13.40;nan;103757.69;4981872;28;20295;-85
2023/02/13 07:39:55;;;;;;;;;;;;;;;13.41;nan;103759.34;4984798;28;19922;-85
2023/02/13 07:42:21;;;;;;;;;;;;;;;13.43;nan;103762.69;4983056;28;19925;-85
2023/02/13 07:44:46;;;;;;;;;;;;;;;13.45;nan;103757.09;4980428;28;19918;-85
2023/02/13 07:47:12;;;;;;;;;;;;;;;13.46;nan;103754.19;4982075;28;19977;-85
2023/02/13 07:49:37;;;;;;;;;;;;;;;13.48;nan;103751.34;4988016;28;19910;-85
2023/02/13 07:52:04;;;;;;;;;;;;;;;13.51;nan;103751.78;4982939;28;19941;-84
2023/02/13 07:54:29;;;;;;;;;;;;;;;13.52;nan;103753.44;4988822;28;19924;-85
2023/02/13 07:56:55;;;;;;;;;;;;;;;13.52;nan;103758.84;4986201;28;19948;-85
2023/02/13 07:59:20;;;;;;;;;;;;;;;13.47;nan;103761.28;4979917;28;19922;-86
2023/02/13 08:01:45;;;;;;;;;;;;;;;13.48;nan;103754.03;4983618;28;19929;-85
2023/02/13 08:04:11;;;;;;;;;;;;;;;13.48;nan;103757.56;4985826;28;20405;-85
2023/02/13 08:06:37;;;;;;;;;;;;;;;13.51;nan;103751.78;4977455;28;19961;-86
2023/02/13 08:11:53;;;;;;;;;;;;;;;13.50;nan;103744.72;4980385;28;19958;-84
2023/02/13 08:14:19;;;;;;;;;;;;;;;13.49;nan;103748.44;4983715;28;20090;-86
2023/02/13 08:16:45;;;;;;;;;;;;;;;13.48;nan;103751.34;4974628;28;20044;-86
2023/02/13 08:19:10;;;;;;;;;;;;;;;13.49;nan;103758.41;4980698;28;19918;-85
2023/02/13 08:21:37;;;;;;;;;;;;;;;13.49;nan;103759.22;4987527;28;19918;-86
2023/02/13 08:24:02;;;;;;;;;;;;;;;13.50;nan;103758.19;4980234;28;19926;-85
2023/02/13 08:26:29;;;;;;;;;;;;;;;13.52;nan;103758.00;4980383;28;19925;-86
2023/02/13 08:28:55;;;;;;;;;;;;;;;13.56;nan;103760.09;4981073;28;20406;-86
2023/02/13 08:31:20;;;;;;;;;;;;;;;13.60;nan;103761.38;4983170;28;19997;-85
2023/02/13 08:33:46;;;;;;;;;;;;;;;13.65;nan;103770.75;4986474;28;19928;-85
2023/02/13 08:36:11;;;;;;;;;;;;;;;13.66;nan;103764.34;4984044;28;19922;-85
2023/02/13 08:38:39;;;;;;;;;;;;;;;13.65;nan;103765.38;4979421;28;19945;-86
2023/02/13 08:41:04;;;;;;;;;;;;;;;13.61;nan;103762.19;4977596;28;20299;-86
2023/02/13 08:43:29;;;;;;;;;;;;;;;13.57;nan;103772.53;4963159;28;19918;-85
2023/02/13 08:45:58;;;;;;;;;;;;;;;13.58;nan;103768.81;4974357;28;19922;-85
2023/02/13 08:48:24;;;;;;;;;;;;;;;13.59;nan;103778.56;4979572;28;19942;-85
2023/02/13 08:50:49;;;;;;;;;;;;;;;13.62;nan;103777.34;4979515;28;19925;-85
2023/02/13 08:53:15;;;;;;;;;;;;;;;13.65;nan;103770.75;4981966;28;19929;-87
2023/02/13 08:55:40;;;;;;;;;;;;;;;13.66;nan;103769.72;4963003;28;19950;-85
2023/02/13 08:58:06;;;;;;;;;;;;;;;13.66;nan;103775.94;4982523;28;19928;-85
2023/02/13 09:00:31;;;;;;;;;;;;;;;13.67;nan;103766.00;4982029;28;19921;-85
2023/02/13 09:03:01;;;;;;;;;;;;;;;13.68;nan;103771.19;4986877;28;19941;-86
2023/02/13 09:05:26;;;;;;;;;;;;;;;13.71;nan;103768.09;4980942;28;19922;-85
2023/02/13 09:07:52;;;;;;;;;;;;;;;13.74;nan;103767.69;4977704;28;20005;-86
2023/02/13 09:10:17;;;;;;;;;;;;;;;13.76;nan;103773.72;4978994;28;19946;-86
2023/02/13 09:12:43;;;;;;;;;;;;;;;13.78;nan;103776.22;4978554;28;19922;-86
2023/02/13 09:15:08;;;;;;;;;;;;;;;13.80;nan;103777.69;4980156;28;20198;-86
2023/02/13 09:17:34;;;;;;;;;;;;;;;13.80;nan;103784.94;4980370;28;19929;-86
2023/02/13 09:19:59;;;;;;;;;;;;;;;13.80;nan;103780.38;4980652;28;19925;-86
2023/02/13 09:22:25;;;;;;;;;;;;;;;13.79;nan;103770.63;4980521;28;19926;-86
2023/02/13 09:24:50;;;;;;;;;;;;;;;13.78;nan;103768.13;4980713;28;19957;-86
2023/02/13 09:27:15;;;;;;;;;;;;;;;13.79;nan;103775.19;4980909;28;20344;-86
2023/02/13 09:29:41;;;;;;;;;;;;;;;13.79;nan;103767.09;4982157;28;20146;-86
2023/02/13 09:32:06;;;;;;;;;;;;;;;13.78;nan;103778.91;4980106;28;19924;-86
2023/02/13 09:34:34;;;;;;;;;;;;;;;13.79;nan;103780.59;4981144;28;19926;-86
2023/02/13 09:36:59;;;;;;;;;;;;;;;13.78;nan;103773.53;4981371;28;20447;-86
2023/02/13 09:39:24;;;;;;;;;;;;;;;13.76;nan;103775.59;4971370;28;20007;-87
2023/02/13 09:41:52;;;;;;;;;;;;;;;13.78;nan;103784.31;4968976;28;19926;-87
2023/02/13 09:44:37;;;;;;;;;;;;;;;13.80;nan;103771.47;4966794;28;20203;-87
2023/02/13 09:47:05;;;;;;;;;;;;;;;13.81;nan;103768.56;4970152;28;19948;-88
2023/02/13 09:49:32;;;;;;;;;;;;;;;13.82;nan;103770.28;4971245;28;19918;-88
2023/02/13 09:51:58;;;;;;;;;;;;;;;13.85;nan;103774.44;4969774;28;19919;-87
2023/02/13 09:54:25;;;;;;;;;;;;;;;13.84;nan;103767.38;4968640;28;19918;-87
2023/02/13 09:56:53;;;;;;;;;;;;;;;13.88;nan;103780.25;4968881;28;20291;-88
2023/02/13 09:59:18;;;;;;;;;;;;;;;13.84;nan;103767.38;4969650;28;19928;-88
2023/02/13 10:01:46;;;;;;;;;;;;;;;13.83;nan;103769.25;4969367;28;19922;-88
2023/02/13 10:04:30;;;;;;;;;;;;;;;13.82;nan;103772.97;4969232;28;19918;-87
2023/02/13 10:07:07;;;;;;;;;;;;;;;13.79;nan;103773.34;4969375;28;19922;-88
2023/02/13 10:09:56;;;;;;;;;;;;;;;13.81;nan;103775.81;4965853;28;19922;-87
2023/02/13 10:12:22;;;;;;;;;;;;;;;13.85;nan;103771.72;4952300;28;20360;-87
2023/02/13 10:14:54;;;;;;;;;;;;;;;13.88;nan;103774.88;4966232;28;19937;-88
2023/02/13 10:17:23;;;;;;;;;;;;;;;13.93;nan;103768.03;4969067;28;19932;-87
2023/02/13 10:20:11;;;;;;;;;;;;;;;13.90;nan;103767.41;4961999;28;19919;-87
2023/02/13 10:23:00;;;;;;;;;;;;;;;13.90;nan;103766.56;4953643;28;19972;-88
2023/02/13 10:25:32;;;;;;;;;;;;;;;13.95;nan;103768.69;4959422;28;19925;-87
2023/02/13 10:28:02;;;;;;;;;;;;;;;13.90;nan;103769.28;4970620;28;19917;-87
2023/02/13 10:30:32;;;;;;;;;;;;;;;13.92;nan;103769.91;4968820;28;19921;-88
2023/02/13 10:33:18;;;;;;;;;;;;;;;13.93;nan;103762.66;4968729;28;19957;-88
2023/02/13 10:36:02;;;;;;;;;;;;;;;13.94;nan;103758.94;4968864;28;19919;-87
2023/02/13 10:38:32;;;;;;;;;;;;;;;13.97;nan;103759.34;4970071;28;19922;-87
2023/02/13 10:41:16;;;;;;;;;;;;;;;13.96;nan;103754.16;4966794;28;20338;-87
2023/02/13 10:44:00;;;;;;;;;;;;;;;13.99;nan;103754.59;4969042;28;19941;-88
2023/02/13 10:46:54;;;;;;;;;;;;;;;14.03;nan;103752.38;4967745;28;20000;-87
2023/02/13 10:49:45;;;;;;;;;;;;;;;14.04;nan;103754.84;4951245;28;20506;-87
2023/02/13 10:52:17;;;;;;;;;;;;;;;14.01;nan;103741.78;4962127;28;19922;-88
2023/02/13 10:54:46;;;;;;;;;;;;;;;14.04;nan;103743.25;4967493;28;19956;-88
2023/02/13 10:57:20;;;;;;;;;;;;;;;13.99;nan;103751.06;4968370;28;20372;-88
2023/02/13 10:59:45;;;;;;;;;;;;;;;13.98;nan;103746.72;4967189;28;19918;-88
2023/02/13 11:02:21;;;;;;;;;;;;;;;13.98;nan;103742.16;4969972;28;20000;-88
2023/02/13 11:04:48;;;;;;;;;;;;;;;14.02;nan;103737.22;4966925;28;19961;-87
2023/02/13 11:07:17;;;;;;;;;;;;;;;14.03;nan;103742.41;4965703;28;21680;-87
2023/02/13 11:09:44;;;;;;;;;;;;;;;14.07;nan;103732.88;4972861;28;19977;-89
2023/02/13 11:12:29;;;;;;;;;;;;;;;14.04;nan;103738.69;4968553;28;19918;-88
2023/02/13 11:14:56;;;;;;;;;;;;;;;14.05;nan;103736.81;4967312;28;20189;-88
2023/02/13 11:17:22;;;;;;;;;;;;;;;14.03;nan;103731.63;4971372;28;20431;-88
2023/02/13 11:19:52;;;;;;;;;;;;;;;14.04;nan;103733.28;4967252;28;19921;-87
2023/02/13 11:22:31;;;;;;;;;;;;;;;14.04;nan;103744.06;4970808;28;20288;-88
2023/02/13 11:25:16;;;;;;;;;;;;;;;14.03;nan;103749.66;4973263;28;19922;-88
2023/02/13 11:27:44;;;;;;;;;;;;;;;14.04;nan;103746.78;4969825;28;19918;-87
2023/02/13 11:30:21;;;;;;;;;;;;;;;13.93;nan;103749.19;4974604;28;19925;-88
2023/02/13 11:32:56;;;;;;;;;;;;;;;13.90;nan;103750.41;4969924;28;19934;-88
2023/02/13 11:35:27;;;;;;;;;;;;;;;13.88;nan;103737.13;4969437;28;19922;-87
2023/02/13 11:38:11;;;;;;;;;;;;;;;13.92;nan;103748.34;4968729;28;19937;-88
2023/02/13 11:40:36;;;;;;;;;;;;;;;13.95;nan;103741.72;4970892;28;19918;-88
2023/02/13 11:43:05;;;;;;;;;;;;;;;13.99;nan;103742.97;4968019;28;19924;-88
2023/02/13 11:45:31;;;;;;;;;;;;;;;14.04;nan;103736.00;4973577;28;19940;-88
2023/02/13 11:47:56;;;;;;;;;;;;;;;14.10;nan;103740.56;4969693;28;20392;-88
2023/02/13 11:50:26;;;;;;;;;;;;;;;14.15;nan;103738.09;4970899;28;20514;-88
2023/02/13 11:52:53;;;;;;;;;;;;;;;14.20;nan;103740.22;4974031;28;19922;-87
2023/02/13 11:55:32;;;;;;;;;;;;;;;14.19;nan;103741.25;4971622;28;20098;-88
2023/02/13 11:57:59;;;;;;;;;;;;;;;14.21;nan;103740.03;4971104;28;19949;-87
2023/02/13 12:00:42;;;;;;;;;;;;;;;14.25;nan;103736.94;4972520;28;20327;-87
2023/02/13 12:03:19;;;;;;;;;;;;;;;14.23;nan;103737.13;4972329;28;19922;-87
2023/02/13 12:05:58;;;;;;;;;;;;;;;14.24;nan;103733.41;4970361;28;19918;-88
2023/02/13 12:08:24;;;;;;;;;;;;;;;14.28;nan;103736.53;4966780;28;19925;-87
2023/02/13 12:10:49;;;;;;;;;;;;;;;14.33;nan;103740.28;4967520;28;19922;-88
2023/02/13 12:13:26;;;;;;;;;;;;;;;14.38;nan;103728.91;4971386;28;20436;-89
2023/02/13 12:15:57;;;;;;;;;;;;;;;14.41;nan;103729.31;4972042;28;19927;-88
2023/02/13 12:18:23;;;;;;;;;;;;;;;14.36;nan;103722.84;4971411;28;20434;-87
2023/02/13 12:20:51;;;;;;;;;;;;;;;14.33;nan;103723.25;4968312;28;19965;-87
2023/02/13 12:23:25;;;;;;;;;;;;;;;14.32;nan;103724.28;4970145;28;19964;-88
2023/02/13 12:25:54;;;;;;;;;;;;;;;14.35;nan;103726.59;4971338;28;20506;-87
2023/02/13 12:28:23;;;;;;;;;;;;;;;14.34;nan;103722.22;4969796;28;19980;-88
2023/02/13 12:30:57;;;;;;;;;;;;;;;14.28;nan;103721.16;4970439;28;20182;-87
2023/02/13 12:33:41;;;;;;;;;;;;;;;14.32;nan;103719.72;4966433;28;19975;-88
2023/02/13 12:36:17;;;;;;;;;;;;;;;14.31;nan;103720.75;4969445;28;19922;-88
2023/02/13 12:39:02;;;;;;;;;;;;;;;14.29;nan;103709.34;4969293;28;20015;-88
2023/02/13 12:41:39;;;;;;;;;;;;;;;14.30;nan;103720.97;4970637;28;20396;-88
2023/02/13 12:44:15;;;;;;;;;;;;;;;14.24;nan;103719.09;4971409;28;19926;-89
2023/02/13 12:46:43;;;;;;;;;;;;;;;14.28;nan;103712.25;4968029;28;20074;-87
2023/02/13 12:49:27;;;;;;;;;;;;;;;14.28;nan;103718.47;4969142;28;19918;-88
2023/02/13 12:52:05;;;;;;;;;;;;;;;14.33;nan;103712.47;4968961;28;20395;-88
2023/02/13 12:54:43;;;;;;;;;;;;;;;14.43;nan;103710.25;4969601;28;20379;-88
2023/02/13 12:57:20;;;;;;;;;;;;;;;14.49;nan;103702.19;4969541;28;19926;-88
2023/02/13 12:59:58;;;;;;;;;;;;;;;14.52;nan;103698.25;4968581;28;20302;-88
2023/02/13 13:02:29;;;;;;;;;;;;;;;14.57;nan;103703.91;4969695;28;20396;-88
2023/02/13 13:04:57;;;;;;;;;;;;;;;14.52;nan;103706.34;4969437;28;20372;-88
2023/02/13 13:07:50;;;;;;;;;;;;;;;14.51;nan;103710.91;4969078;28;19922;-88
2023/02/13 13:10:18;;;;;;;;;;;;;;;14.57;nan;103706.59;4968945;28;19953;-88
2023/02/13 13:12:49;;;;;;;;;;;;;;;14.56;nan;103701.41;4969137;28;20454;-88
2023/02/13 13:15:14;;;;;;;;;;;;;;;14.57;nan;103703.06;4966588;28;19944;-88
2023/02/13 13:17:40;;;;;;;;;;;;;;;14.51;nan;103694.72;4970204;28;19922;-87
2023/02/13 13:20:21;;;;;;;;;;;;;;;14.48;nan;103694.31;4966136;28;19918;-88
2023/02/13 13:22:59;;;;;;;;;;;;;;;14.51;nan;103691.19;4968008;28;19970;-88
2023/02/13 13:25:35;;;;;;;;;;;;;;;14.54;nan;103687.25;4969571;28;19972;-88
2023/02/13 13:28:10;;;;;;;;;;;;;;;14.48;nan;103684.34;4968288;28;19918;-88
2023/02/13 13:30:36;;;;;;;;;;;;;;;14.47;nan;103687.25;4971744;28;20394;-87
2023/02/13 13:33:06;;;;;;;;;;;;;;;14.46;nan;103670.22;4969526;28;20017;-88
2023/02/13 13:35:31;;;;;;;;;;;;;;;14.46;nan;103653.22;4969322;28;19922;-88
2023/02/13 13:38:06;;;;;;;;;;;;;;;14.46;nan;103661.31;4968289;28;20043;-88
2023/02/13 13:40:41;;;;;;;;;;;;;;;14.44;nan;103656.13;4969715;28;19957;-88
2023/02/13 13:43:39;;;;;;;;;;;;;;;14.45;nan;103652.38;4968082;28;19953;-88
2023/02/13 13:46:14;;;;;;;;;;;;;;;14.41;nan;103656.50;4956275;28;19924;-88
2023/02/13 13:48:40;;;;;;;;;;;;;;;14.45;nan;103646.16;4967638;28;19918;-88